Time;durP1;ratioP1;P1;durP2;ratioP2;P2;SDS_P1;SDS_P2;PMS_P1;PMS_P2;Temp;Humidity;BMP_temperature;BMP_pressure;BME280_temperature;BME280_humidity;BME280_pressure;Samples;Min_cycle;Max_cycle;Signal;HPM_P1;HPM_P2
2022/10/04 00:01:11;;;;;;;46.85;7.57;;;3.90;99.90;;;;;;8265335;28;20430;-79
2022/10/04 00:05:17;;;;;;;72.07;8.60;;;3.90;99.90;;;;;;8262296;28;20034;-79
2022/10/04 00:09:30;;;;;;;17.75;6.85;;;4.00;99.90;;;;;;8258103;28;20023;-79
2022/10/04 00:13:33;;;;;;;20.38;7.03;;;4.00;99.90;;;;;;8261484;28;20031;-78
2022/10/04 00:17:34;;;;;;;24.88;6.45;;;4.00;99.90;;;;;;8262331;28;20045;-78
2022/10/04 00:22:11;;;;;;;22.65;6.40;;;4.00;99.90;;;;;;8263164;28;20058;-79
2022/10/04 00:26:27;;;;;;;25.63;6.20;;;3.90;99.90;;;;;;8264075;28;20046;-79
2022/10/04 00:30:36;;;;;;;22.08;6.25;;;3.90;99.90;;;;;;8264248;28;20105;-79
2022/10/04 00:34:53;;;;;;;20.23;6.47;;;3.90;99.90;;;;;;8262955;28;20096;-79
2022/10/04 00:39:09;;;;;;;25.13;6.05;;;3.80;99.90;;;;;;8256441;28;20022;-79
2022/10/04 00:43:16;;;;;;;30.58;6.30;;;3.70;99.90;;;;;;8262381;28;20022;-80
2022/10/04 00:48:01;;;;;;;18.13;5.63;;;3.60;99.90;;;;;;8262428;28;20026;-79
2022/10/04 00:52:19;;;;;;;62.92;6.60;;;3.50;99.90;;;;;;8249275;28;20042;-79
2022/10/04 00:56:33;;;;;;;55.58;6.53;;;3.50;99.90;;;;;;8262630;28;20034;-80
2022/10/04 01:00:35;;;;;;;57.20;6.68;;;3.40;99.90;;;;;;8263007;28;20375;-79
2022/10/04 01:04:50;;;;;;;56.97;5.95;;;3.40;99.90;;;;;;8262264;28;20029;-79
2022/10/04 01:08:53;;;;;;;49.20;6.82;;;3.60;99.90;;;;;;8263335;28;20038;-79
2022/10/04 01:13:17;;;;;;;37.47;6.07;;;3.50;99.90;;;;;;8262310;28;20018;-79
2022/10/04 01:17:19;;;;;;;18.48;5.57;;;3.40;99.90;;;;;;8263241;28;20047;-79
2022/10/04 01:21:23;;;;;;;27.70;5.20;;;3.30;99.90;;;;;;8262358;28;20052;-79
2022/10/04 01:25:47;;;;;;;26.15;5.97;;;3.20;99.90;;;;;;8263616;28;20410;-78
2022/10/04 01:29:48;;;;;;;33.20;5.25;;;3.10;99.90;;;;;;8258952;28;20506;-79
2022/10/04 01:33:49;;;;;;;42.50;5.90;;;3.10;99.90;;;;;;8261706;28;20057;-79
2022/10/04 01:37:49;;;;;;;61.72;5.75;;;3.10;99.90;;;;;;8263259;28;20050;-79
2022/10/04 01:41:54;;;;;;;45.10;5.53;;;3.10;99.90;;;;;;8261501;28;20033;-79
2022/10/04 01:46:01;;;;;;;40.78;5.30;;;3.10;99.90;;;;;;8258583;28;20026;-80
2022/10/04 01:50:07;;;;;;;49.58;5.03;;;3.10;99.90;;;;;;8261663;28;20109;-79
2022/10/04 01:54:18;;;;;;;65.28;6.15;;;3.10;99.90;;;;;;8260684;28;20426;-80
2022/10/04 01:58:29;;;;;;;47.17;5.35;;;3.30;99.90;;;;;;8260033;28;20034;-78
2022/10/04 02:02:40;;;;;;;39.58;5.25;;;3.20;99.90;;;;;;8262300;28;20573;-78
2022/10/04 02:06:43;;;;;;;25.40;5.95;;;3.10;99.90;;;;;;8255842;28;20022;-79
2022/10/04 02:10:47;;;;;;;65.40;5.82;;;3.00;99.90;;;;;;8262907;28;20022;-80
2022/10/04 02:14:52;;;;;;;38.55;5.43;;;3.10;99.90;;;;;;8262454;28;20030;-78
2022/10/04 02:18:53;;;;;;;40.53;6.38;;;3.10;99.90;;;;;;8262455;28;20022;-79
2022/10/04 02:23:05;;;;;;;37.42;5.65;;;2.90;99.90;;;;;;8262212;28;20022;-78
2022/10/04 02:27:05;;;;;;;34.20;5.90;;;2.90;99.90;;;;;;8262097;28;20097;-78
2022/10/04 02:35:31;;;;;;;27.35;4.88;;;2.80;99.90;;;;;;8263973;28;20121;-78
2022/10/04 02:39:48;;;;;;;19.73;4.80;;;2.80;99.90;;;;;;8260660;28;20132;-79
2022/10/04 02:43:59;;;;;;;26.50;5.45;;;2.80;99.90;;;;;;8263624;28;20018;-80
2022/10/04 02:48:20;;;;;;;87.25;6.88;;;2.80;99.90;;;;;;8260717;28;20454;-78
2022/10/04 02:52:36;;;;;;;54.58;6.10;;;2.70;99.90;;;;;;8263368;28;20105;-80
2022/10/04 02:56:37;;;;;;;94.72;7.38;;;2.70;99.90;;;;;;8257361;28;20062;-79
2022/10/04 03:00:47;;;;;;;53.80;6.43;;;2.60;99.90;;;;;;8262158;28;20062;-80
2022/10/04 03:04:49;;;;;;;;;;;2.70;99.90;;;;;;8260227;28;20026;-79
2022/10/04 03:08:54;;;;;;;10.32;5.13;;;2.60;99.90;;;;;;8260928;28;19928;-79
2022/10/04 03:12:54;;;;;;;17.52;6.22;;;2.60;99.90;;;;;;8263397;28;20030;-78
2022/10/04 03:16:59;;;;;;;28.23;6.38;;;2.60;99.90;;;;;;8266593;28;20034;-79
2022/10/04 03:21:03;;;;;;;24.58;6.10;;;2.70;99.90;;;;;;8258815;28;20120;-79
2022/10/04 03:25:05;;;;;;;15.77;6.63;;;2.60;99.90;;;;;;8268138;28;20166;-78
2022/10/04 03:29:09;;;;;;;11.05;5.53;;;2.50;99.90;;;;;;8266995;28;20022;-79
2022/10/04 03:33:16;;;;;;;14.45;6.13;;;2.40;99.90;;;;;;8265058;28;20077;-79
2022/10/04 03:37:20;;;;;;;11.75;5.68;;;2.30;99.90;;;;;;8262906;28;20034;-79
2022/10/04 03:41:23;;;;;;;9.50;5.20;;;2.10;99.90;;;;;;8259377;28;20030;-79
2022/10/04 03:45:26;;;;;;;10.50;6.05;;;2.00;99.90;;;;;;8256988;28;20272;-78
2022/10/04 03:49:36;;;;;;;11.27;5.03;;;2.00;99.90;;;;;;8259043;28;20036;-79
2022/10/04 03:53:42;;;;;;;7.22;4.68;;;2.00;99.90;;;;;;8263408;28;20019;-80
2022/10/04 03:57:43;;;;;;;70.57;7.72;;;2.00;99.90;;;;;;8251249;28;20040;-79
2022/10/04 04:01:53;;;;;;;24.52;6.97;;;1.80;99.90;;;;;;8264610;28;20639;-78
2022/10/04 04:05:58;;;;;;;17.80;7.85;;;1.80;99.90;;;;;;8260618;28;20031;-79
2022/10/04 04:10:04;;;;;;;75.50;8.38;;;1.80;99.90;;;;;;8259980;28;20069;-79
2022/10/04 04:14:22;;;;;;;38.35;8.07;;;1.80;99.90;;;;;;8257803;28;20502;-79
2022/10/04 04:18:26;;;;;;;16.77;8.50;;;1.80;99.90;;;;;;8263162;28;20038;-78
2022/10/04 04:22:30;;;;;;;21.58;8.93;;;1.80;99.90;;;;;;8263317;28;20651;-79
2022/10/04 04:26:42;;;;;;;18.83;9.10;;;1.90;99.90;;;;;;8263316;28;20041;-79
2022/10/04 04:30:46;;;;;;;17.42;8.85;;;2.00;99.90;;;;;;8258467;28;20069;-79
2022/10/04 04:34:57;;;;;;;17.85;9.63;;;2.20;99.90;;;;;;8264257;28;20105;-79
2022/10/04 04:39:33;;;;;;;19.42;9.82;;;2.20;99.90;;;;;;8258336;28;20026;-78
2022/10/04 04:43:34;;;;;;;14.68;8.32;;;2.20;99.90;;;;;;8256754;28;20042;-79
2022/10/04 04:47:43;;;;;;;22.10;8.10;;;2.10;99.90;;;;;;8261403;28;20085;-79
2022/10/04 04:51:50;;;;;;;32.97;9.02;;;2.00;99.90;;;;;;8264388;28;20033;-79
2022/10/04 04:55:56;;;;;;;20.60;8.05;;;2.00;99.90;;;;;;8262681;28;20030;-78
2022/10/04 05:00:00;;;;;;;52.05;9.07;;;2.10;99.90;;;;;;8260685;28;20022;-78
2022/10/04 05:04:12;;;;;;;37.80;8.57;;;2.40;99.90;;;;;;8262232;28;20088;-78
2022/10/04 05:08:15;;;;;;;54.85;8.77;;;2.70;99.90;;;;;;8261309;28;20034;-78
2022/10/04 05:12:21;;;;;;;57.38;8.50;;;2.70;99.90;;;;;;8263112;28;20056;-78
2022/10/04 05:16:33;;;;;;;58.85;8.68;;;2.60;99.90;;;;;;8261375;28;20108;-79
2022/10/04 05:20:34;;;;;;;30.67;6.80;;;3.00;99.90;;;;;;8256437;28;20031;-78
2022/10/04 05:24:38;;;;;;;39.30;6.10;;;3.60;99.90;;;;;;8262967;28;20276;-80
2022/10/04 05:28:40;;;;;;;22.60;6.35;;;3.50;99.90;;;;;;8261598;28;20629;-79
2022/10/04 05:32:56;;;;;;;25.27;5.80;;;3.20;99.90;;;;;;8261464;28;20022;-80
2022/10/04 05:37:19;;;;;;;11.68;5.95;;;2.90;99.90;;;;;;8261277;28;20026;-78
2022/10/04 05:42:09;;;;;;;7.88;5.45;;;2.80;99.90;;;;;;8260673;28;20171;-79
2022/10/04 05:46:18;;;;;;;9.48;6.22;;;2.70;99.90;;;;;;8264580;28;20030;-78
2022/10/04 05:50:34;;;;;;;11.63;6.72;;;2.80;99.90;;;;;;8268512;28;20113;-80
2022/10/04 05:54:35;;;;;;;10.63;6.50;;;2.80;99.90;;;;;;8254814;28;20050;-79
2022/10/04 05:59:01;;;;;;;9.15;5.30;;;3.10;99.90;;;;;;8260761;28;20117;-79
2022/10/04 06:03:31;;;;;;;8.32;5.30;;;3.20;99.90;;;;;;8261135;28;20022;-78
2022/10/04 06:07:40;;;;;;;9.30;6.17;;;3.10;99.90;;;;;;8260647;28;20023;-79
2022/10/04 06:12:01;;;;;;;12.07;8.15;;;3.00;99.90;;;;;;8261888;28;20108;-79
2022/10/04 06:16:16;;;;;;;17.77;8.95;;;3.00;99.90;;;;;;8260156;28;20421;-79
2022/10/04 06:20:44;;;;;;;11.93;7.72;;;3.10;99.90;;;;;;8261691;28;20026;-78
2022/10/04 06:24:51;;;;;;;15.75;10.20;;;3.30;99.90;;;;;;8255209;28;20022;-79
2022/10/04 06:28:58;;;;;;;15.02;8.98;;;3.30;99.90;;;;;;8261214;28;20532;-79
2022/10/04 06:33:38;;;;;;;14.82;9.82;;;3.40;99.90;;;;;;8261563;28;20602;-79
2022/10/04 06:37:48;;;;;;;15.63;8.27;;;3.50;99.90;;;;;;8243742;28;20046;-80
2022/10/04 06:42:20;;;;;;;19.30;7.97;;;4.00;99.90;;;;;;8260348;28;20289;-79
2022/10/04 06:46:41;;;;;;;11.85;7.95;;;4.10;99.90;;;;;;8261604;28;20624;-80
2022/10/04 06:50:57;;;;;;;13.65;8.35;;;4.30;99.90;;;;;;8261360;28;20521;-79
2022/10/04 06:55:12;;;;;;;14.60;8.15;;;4.70;99.90;;;;;;8268554;28;20023;-79
2022/10/04 06:59:31;;;;;;;12.20;8.00;;;5.10;99.90;;;;;;8268041;28;20022;-80
2022/10/04 07:03:51;;;;;;;10.63;6.82;;;5.20;99.90;;;;;;8265936;28;20494;-79
2022/10/04 07:08:05;;;;;;;14.68;6.25;;;5.30;99.90;;;;;;8263456;28;20473;-79
2022/10/04 07:12:14;;;;;;;11.75;6.93;;;5.50;99.90;;;;;;8267724;28;20048;-80
2022/10/04 07:16:15;;;;;;;9.40;6.70;;;5.80;99.90;;;;;;8265975;28;20045;-80
2022/10/04 07:20:27;;;;;;;8.02;6.15;;;6.30;99.90;;;;;;8267143;28;20368;-80
2022/10/04 07:25:01;;;;;;;7.60;5.70;;;6.70;99.90;;;;;;8267752;28;20073;-80
2022/10/04 07:29:20;;;;;;;7.20;5.45;;;6.60;99.90;;;;;;8264169;28;20065;-79
2022/10/04 07:33:25;;;;;;;6.75;5.80;;;6.80;99.90;;;;;;8265426;28;20034;-80
2022/10/04 07:37:28;;;;;;;6.85;5.10;;;6.90;99.90;;;;;;8265026;28;20034;-79
2022/10/04 07:41:36;;;;;;;7.80;5.28;;;7.00;99.90;;;;;;8265447;28;20176;-79
2022/10/04 07:45:41;;;;;;;8.77;5.82;;;6.90;99.90;;;;;;8260630;28;20023;-79
2022/10/04 07:49:41;;;;;;;9.13;5.70;;;7.00;99.90;;;;;;8267337;28;20015;-79
2022/10/04 07:53:50;;;;;;;7.60;4.90;;;7.40;99.90;;;;;;8265499;28;20031;-80
2022/10/04 07:58:44;;;;;;;6.45;4.70;;;7.70;99.90;;;;;;8265588;28;21371;-80
2022/10/04 08:02:59;;;;;;;4.78;4.28;;;7.70;99.90;;;;;;8196281;29;20130;-79
2022/10/04 08:07:01;;;;;;;6.78;4.85;;;7.90;99.90;;;;;;8226762;28;20104;-78
2022/10/04 08:11:39;;;;;;;5.28;4.38;;;8.20;99.90;;;;;;8265034;28;20026;-79
2022/10/04 08:15:42;;;;;;;6.72;4.68;;;8.50;99.90;;;;;;8263762;28;20034;-79
2022/10/04 08:19:59;;;;;;;8.02;4.65;;;9.00;99.90;;;;;;8263406;28;20557;-80
2022/10/04 08:24:17;;;;;;;8.52;4.50;;;9.10;99.90;;;;;;8264423;28;20372;-79
2022/10/04 08:33:09;;;;;;;10.48;4.82;;;9.50;99.90;;;;;;8261455;28;20121;-79
2022/10/04 08:37:31;;;;;;;4.45;3.92;;;9.80;99.90;;;;;;8258206;28;20050;-79
2022/10/04 08:41:55;;;;;;;5.88;4.38;;;9.80;99.90;;;;;;8264318;28;20688;-78
2022/10/04 08:46:18;;;;;;;5.68;4.07;;;9.90;99.90;;;;;;8260282;28;20129;-79
2022/10/04 08:50:37;;;;;;;8.40;4.38;;;10.20;99.90;;;;;;8263386;28;20034;-79
2022/10/04 08:55:20;;;;;;;4.85;3.95;;;10.40;99.90;;;;;;8263572;28;20030;-79
2022/10/04 08:59:45;;;;;;;5.22;3.55;;;10.60;99.90;;;;;;8261269;28;20034;-79
2022/10/04 09:04:47;;;;;;;7.13;3.97;;;10.40;99.90;;;;;;8255840;28;20022;-79
2022/10/04 09:09:18;;;;;;;5.97;4.18;;;10.80;99.90;;;;;;8203048;28;20117;-79
2022/10/04 09:13:41;;;;;;;5.60;4.78;;;11.40;99.90;;;;;;8262202;28;20106;-79
2022/10/04 09:18:00;;;;;;;14.02;8.13;;;12.30;99.90;;;;;;8255790;28;20955;-80
2022/10/04 09:22:18;;;;;;;6.05;4.57;;;13.00;99.90;;;;;;8260792;28;20030;-79
2022/10/04 09:26:37;;;;;;;5.20;3.10;;;13.60;99.90;;;;;;8261854;28;20026;-79
2022/10/04 09:31:15;;;;;;;4.30;3.40;;;13.80;99.90;;;;;;8254967;28;20045;-80
2022/10/04 09:35:45;;;;;;;4.03;3.30;;;14.10;99.90;;;;;;8261740;28;20031;-79
2022/10/04 09:40:08;;;;;;;4.68;3.20;;;14.10;99.90;;;;;;8257264;28;20034;-80
2022/10/04 09:44:32;;;;;;;6.55;3.72;;;14.40;99.90;;;;;;8260992;28;20019;-82
2022/10/04 09:49:02;;;;;;;5.03;3.50;;;14.30;99.90;;;;;;8255613;28;20032;-80
2022/10/04 09:53:23;;;;;;;4.80;3.78;;;14.40;99.90;;;;;;8262607;28;20491;-80
2022/10/04 09:57:40;;;;;;;3.15;2.75;;;14.80;99.90;;;;;;8261057;28;20026;-80
2022/10/04 10:02:17;;;;;;;4.50;3.60;;;15.20;99.90;;;;;;8259406;28;20034;-79
2022/10/04 10:06:42;;;;;;;3.92;2.65;;;15.50;99.90;;;;;;8261589;28;20487;-80
2022/10/04 10:15:18;;;;;;;;;;;16.70;99.90;;;;;;8262653;28;20042;-79
2022/10/04 10:19:40;;;;;;;2.70;2.40;;;17.30;99.90;;;;;;8261772;28;20344;-80
2022/10/04 10:24:21;;;;;;;2.50;2.30;;;17.70;99.90;;;;;;8255353;28;20030;-80
2022/10/04 10:28:53;;;;;;;5.25;2.55;;;18.00;99.90;;;;;;8261326;28;20022;-80
2022/10/04 10:33:10;;;;;;;5.10;3.13;;;17.90;99.90;;;;;;8258420;28;20021;-80
2022/10/04 10:37:23;;;;;;;4.03;3.63;;;17.00;99.90;;;;;;8260775;28;20026;-80
2022/10/04 10:41:51;;;;;;;3.60;3.15;;;16.50;99.90;;;;;;8261083;28;20502;-81
2022/10/04 10:46:22;;;;;;;5.15;3.15;;;16.80;99.90;;;;;;8262127;28;20026;-81
2022/10/04 10:51:02;;;;;;;4.90;3.40;;;16.70;99.90;;;;;;8262279;28;20406;-80
2022/10/04 10:55:20;;;;;;;4.20;3.45;;;17.30;99.90;;;;;;8258050;28;20505;-80
2022/10/04 10:59:41;;;;;;;6.22;3.40;;;17.80;99.90;;;;;;8259797;28;20026;-80
2022/10/04 11:04:23;;;;;;;4.22;3.20;;;19.30;99.90;;;;;;8248673;28;20101;-80
2022/10/04 11:09:01;;;;;;;3.80;3.15;;;20.10;99.90;;;;;;8246373;28;20039;-80
2022/10/04 11:13:47;;;;;;;3.42;3.10;;;20.00;99.90;;;;;;8261405;28;20093;-80
2022/10/04 11:18:21;;;;;;;4.72;3.00;;;19.50;99.90;;;;;;8250371;28;20045;-80
2022/10/04 11:22:45;;;;;;;3.45;3.00;;;19.10;99.90;;;;;;8260318;28;20022;-80
2022/10/04 11:27:20;;;;;;;6.20;2.88;;;19.60;99.90;;;;;;8255184;28;20029;-80
2022/10/04 11:31:42;;;;;;;3.53;2.60;;;20.00;99.90;;;;;;8259819;28;20553;-80
2022/10/04 11:36:20;;;;;;;2.78;2.58;;;20.50;99.90;;;;;;8264894;28;20562;-80
2022/10/04 11:40:29;;;;;;;4.35;3.35;;;21.50;99.90;;;;;;8266578;28;20029;-80
2022/10/04 11:45:16;;;;;;;5.05;2.60;;;22.00;99.90;;;;;;8265968;28;20023;-81
2022/10/04 11:49:55;;;;;;;2.95;2.00;;;22.10;99.90;;;;;;8266223;28;20025;-80
2022/10/04 11:54:26;;;;;;;2.03;1.33;;;22.70;99.90;;;;;;8261722;28;20486;-81
2022/10/04 11:58:37;;;;;;;2.08;1.60;;;22.30;99.90;;;;;;8266125;28;20498;-80
2022/10/04 12:02:53;;;;;;;3.65;1.67;;;22.30;99.90;;;;;;8259019;28;20030;-81
2022/10/04 12:07:28;;;;;;;5.55;1.70;;;22.90;99.90;;;;;;8264800;28;20026;-80
2022/10/04 12:16:40;;;;;;;2.00;1.52;;;21.30;99.90;;;;;;8265220;28;20053;-80
2022/10/04 12:21:08;;;;;;;1.50;1.40;;;21.60;99.90;;;;;;8260082;28;20073;-81
2022/10/04 12:25:35;;;;;;;3.25;1.90;;;21.60;99.90;;;;;;8264848;28;20019;-80
2022/10/04 12:30:14;;;;;;;2.40;1.65;;;22.60;99.90;;;;;;8258598;28;20577;-80
2022/10/04 12:34:26;;;;;;;1.80;1.50;;;22.80;99.90;;;;;;8264865;28;20145;-80
2022/10/04 12:38:33;;;;;;;2.28;1.50;;;22.80;99.90;;;;;;8262969;28;20045;-81
2022/10/04 12:42:39;;;;;;;4.00;1.50;;;22.50;99.90;;;;;;8257013;28;20035;-80
2022/10/04 12:47:08;;;;;;;2.65;1.38;;;23.40;99.90;;;;;;8263557;28;20154;-80
2022/10/04 12:51:18;;;;;;;4.78;1.60;;;25.10;99.10;;;;;;8263384;28;20025;-80
2022/10/04 12:55:37;;;;;;;2.65;1.50;;;25.90;96.00;;;;;;8262655;28;20026;-80
2022/10/04 12:59:37;;;;;;;1.55;1.45;;;26.20;94.10;;;;;;8262488;28;20121;-81
2022/10/04 13:04:19;;;;;;;1.30;1.15;;;26.90;93.20;;;;;;8262414;28;20530;-80
2022/10/04 13:08:56;;;;;;;5.13;1.75;;;26.80;93.10;;;;;;8262233;28;20039;-80
2022/10/04 13:13:22;;;;;;;3.20;1.50;;;26.30;94.10;;;;;;8262577;28;20022;-80
2022/10/04 13:17:50;;;;;;;1.52;1.40;;;24.60;96.60;;;;;;8263827;28;20513;-80
2022/10/04 13:22:23;;;;;;;1.92;1.42;;;22.00;99.90;;;;;;8263586;28;20026;-80
2022/10/04 13:26:45;;;;;;;2.30;1.50;;;22.60;99.90;;;;;;8261516;28;20022;-81
2022/10/04 13:31:06;;;;;;;2.65;1.33;;;25.70;95.50;;;;;;8262733;28;20034;-80
2022/10/04 13:35:33;;;;;;;3.25;1.42;;;25.80;94.60;;;;;;8262813;28;20437;-81
2022/10/04 13:39:57;;;;;;;2.67;1.80;;;27.80;89.20;;;;;;8255378;28;20213;-81
2022/10/04 13:44:46;;;;;;;2.15;1.40;;;28.30;90.40;;;;;;8262203;28;20030;-81
2022/10/04 13:49:14;;;;;;;3.08;1.38;;;27.10;90.30;;;;;;8259825;28;20443;-79
2022/10/04 13:58:51;;;;;;;2.67;1.05;;;24.10;94.00;;;;;;8257825;28;20069;-80
2022/10/04 14:03:09;;;;;;;1.52;1.00;;;25.10;91.20;;;;;;8249961;28;20042;-81
2022/10/04 14:07:36;;;;;;;2.35;0.80;;;26.40;85.80;;;;;;8259139;28;20027;-81
2022/10/04 14:11:52;;;;;;;1.63;0.90;;;26.70;85.70;;;;;;8255295;28;20022;-79
2022/10/04 14:16:04;;;;;;;1.02;0.93;;;27.20;73.30;;;;;;8261931;28;20034;-78
2022/10/04 14:20:23;;;;;;;1.40;0.90;;;27.00;77.20;;;;;;8261411;28;20077;-79
2022/10/04 14:24:50;;;;;;;1.20;0.80;;;26.30;74.90;;;;;;8261926;28;20503;-79
2022/10/04 14:29:27;;;;;;;1.10;0.82;;;25.00;77.20;;;;;;8257679;28;20025;-79
2022/10/04 14:33:57;;;;;;;1.88;1.00;;;23.60;83.20;;;;;;8261518;28;20027;-79
2022/10/04 14:38:42;;;;;;;2.60;1.10;;;22.40;88.20;;;;;;8254080;28;20022;-78
2022/10/04 14:42:51;;;;;;;1.15;0.90;;;22.00;87.10;;;;;;8214526;28;20046;-80
2022/10/04 14:47:29;;;;;;;4.73;1.13;;;21.00;91.40;;;;;;8248526;28;20030;-79
2022/10/04 14:52:13;;;;;;;1.38;1.27;;;20.40;92.80;;;;;;8235068;28;20089;-80
2022/10/04 14:56:37;;;;;;;1.80;1.00;;;19.90;94.50;;;;;;8243222;28;20031;-80
2022/10/04 15:01:14;;;;;;;3.10;1.10;;;19.70;95.10;;;;;;8254377;28;20027;-80
2022/10/04 15:05:38;;;;;;;1.48;1.20;;;19.30;96.90;;;;;;8258556;28;20069;-80
2022/10/04 15:09:56;;;;;;;3.05;1.23;;;18.30;98.40;;;;;;8250491;28;20019;-80
2022/10/04 15:14:02;;;;;;;3.67;1.40;;;17.70;99.90;;;;;;8258862;28;20422;-80
2022/10/04 15:18:28;;;;;;;1.73;1.48;;;17.60;99.90;;;;;;8266181;28;20447;-80
2022/10/04 15:22:42;;;;;;;3.25;1.60;;;17.10;99.90;;;;;;8266626;28;20105;-80
2022/10/04 15:27:21;;;;;;;2.53;1.60;;;16.50;99.90;;;;;;8261754;28;20062;-80
2022/10/04 15:32:03;;;;;;;3.20;1.92;;;16.10;99.90;;;;;;8265888;28;20111;-79
2022/10/04 15:36:24;;;;;;;2.95;1.95;;;15.70;99.90;;;;;;8259919;28;20069;-80
2022/10/04 15:40:57;;;;;;;3.13;2.13;;;15.30;99.90;;;;;;8283966;28;20030;-79
2022/10/04 15:45:15;;;;;;;3.78;1.73;;;15.10;99.90;;;;;;8265339;28;20053;-80
2022/10/04 15:49:51;;;;;;;21.27;4.80;;;14.90;99.90;;;;;;8265018;28;20050;-80
2022/10/04 15:54:33;;;;;;;4.38;2.08;;;14.90;99.90;;;;;;8258971;28;20026;-80
2022/10/04 15:59:02;;;;;;;5.90;2.20;;;14.70;99.90;;;;;;8263381;28;20030;-79
2022/10/04 16:03:15;;;;;;;4.95;2.00;;;14.80;99.90;;;;;;8264136;28;20083;-81
2022/10/04 16:07:47;;;;;;;2.67;2.17;;;14.70;99.90;;;;;;8262948;28;20057;-80
2022/10/04 16:11:59;;;;;;;5.57;2.55;;;14.70;99.90;;;;;;8264385;28;20130;-81
2022/10/04 16:16:24;;;;;;;8.65;3.17;;;14.60;99.90;;;;;;8264507;28;20038;-80
2022/10/04 16:20:49;;;;;;;6.50;3.60;;;14.50;99.90;;;;;;8264142;28;20491;-79
2022/10/04 16:24:50;;;;;;;9.32;4.38;;;14.40;99.90;;;;;;8260816;28;20029;-80
2022/10/04 16:29:28;;;;;;;6.05;4.88;;;14.20;99.90;;;;;;8264668;28;20443;-80
2022/10/04 16:33:41;;;;;;;5.95;4.82;;;13.70;99.90;;;;;;8223208;28;20073;-80
2022/10/04 16:37:57;;;;;;;5.15;4.47;;;13.50;99.90;;;;;;8265285;28;20022;-80
2022/10/04 16:42:03;;;;;;;6.47;4.30;;;13.20;99.90;;;;;;8264343;28;20022;-79
2022/10/04 16:46:21;;;;;;;8.60;4.40;;;12.80;99.90;;;;;;8263519;28;20025;-79
2022/10/04 16:50:47;;;;;;;7.28;3.95;;;12.50;99.90;;;;;;8263614;28;20669;-79
2022/10/04 16:55:00;;;;;;;5.10;3.97;;;12.20;99.90;;;;;;8259244;28;20106;-80
2022/10/04 16:59:02;;;;;;;8.82;3.95;;;11.90;99.90;;;;;;8263083;28;20022;-80
2022/10/04 17:03:10;;;;;;;7.53;4.47;;;11.60;99.90;;;;;;8261142;28;20026;-80
2022/10/04 17:07:29;;;;;;;6.63;3.40;;;11.50;99.90;;;;;;8260999;28;20105;-79
2022/10/04 17:11:56;;;;;;;6.30;3.35;;;11.40;99.90;;;;;;8261673;28;20022;-80
2022/10/04 17:16:22;;;;;;;6.68;3.88;;;11.10;99.90;;;;;;8259569;28;20030;-79
2022/10/04 17:20:44;;;;;;;7.03;4.85;;;11.00;99.90;;;;;;8264026;28;20035;-79
2022/10/04 17:25:14;;;;;;;13.07;8.55;;;10.80;99.90;;;;;;8256193;28;20065;-80
2022/10/04 17:29:26;;;;;;;18.13;12.85;;;10.60;99.90;;;;;;8257692;28;20022;-80
2022/10/04 17:33:45;;;;;;;16.67;11.43;;;10.60;99.90;;;;;;8262182;28;20450;-80
2022/10/04 17:38:05;;;;;;;18.17;10.90;;;10.40;99.90;;;;;;8258414;28;20030;-79
2022/10/04 17:42:25;;;;;;;22.50;13.77;;;10.10;99.90;;;;;;8261995;28;20026;-79
2022/10/04 17:46:39;;;;;;;21.20;12.65;;;10.00;99.90;;;;;;8262850;28;20085;-80
2022/10/04 17:55:27;;;;;;;7.13;5.25;;;9.80;99.90;;;;;;8262861;28;20040;-79
2022/10/04 17:59:38;;;;;;;8.00;4.72;;;9.80;99.90;;;;;;8260749;28;20054;-80
2022/10/04 18:04:05;;;;;;;6.15;4.65;;;9.80;99.90;;;;;;8259261;28;20398;-79
2022/10/04 18:08:30;;;;;;;6.93;4.40;;;9.80;99.90;;;;;;8253622;28;20089;-79
2022/10/04 18:12:37;;;;;;;8.30;3.65;;;9.60;99.90;;;;;;8256420;28;20035;-79
2022/10/04 18:17:03;;;;;;;5.85;3.70;;;9.70;99.90;;;;;;8259391;28;20607;-79
2022/10/04 18:21:18;;;;;;;5.68;3.00;;;9.70;99.90;;;;;;8257656;28;20034;-80
2022/10/04 18:25:22;;;;;;;8.90;3.05;;;9.40;99.90;;;;;;8259092;28;20398;-79
2022/10/04 18:29:40;;;;;;;7.55;3.58;;;9.10;99.90;;;;;;8259898;28;20497;-79
2022/10/04 18:33:41;;;;;;;26.27;15.95;;;8.90;99.90;;;;;;8254746;28;20483;-79
2022/10/04 18:37:41;;;;;;;9.35;6.00;;;8.80;99.90;;;;;;8258883;28;20037;-79
2022/10/04 18:41:50;;;;;;;18.48;10.73;;;8.70;99.90;;;;;;8258261;28;20112;-79
2022/10/04 18:46:20;;;;;;;18.85;9.25;;;8.90;99.90;;;;;;8264535;28;20566;-79
2022/10/04 18:50:23;;;;;;;32.20;21.63;;;9.10;99.90;;;;;;8267066;28;20029;-79
2022/10/04 18:54:52;;;;;;;6.38;4.72;;;9.10;99.90;;;;;;8266439;28;20034;-79
2022/10/04 19:03:35;;;;;;;8.93;6.50;;;9.00;99.90;;;;;;8265860;28;20045;-78
2022/10/04 19:07:41;;;;;;;7.88;6.05;;;8.70;99.90;;;;;;8251757;28;20538;-79
2022/10/04 19:11:50;;;;;;;12.95;7.03;;;8.30;99.90;;;;;;8265853;28;20566;-79
2022/10/04 19:16:21;;;;;;;21.45;12.05;;;8.10;99.90;;;;;;8287666;28;20066;-79
2022/10/04 19:20:39;;;;;;;15.23;10.05;;;8.30;99.90;;;;;;8260803;28;20023;-79
2022/10/04 19:25:09;;;;;;;19.67;11.43;;;8.20;99.90;;;;;;8255985;28;20038;-79
2022/10/04 19:29:42;;;;;;;14.50;10.02;;;8.10;99.90;;;;;;8258267;28;20033;-78
2022/10/04 19:34:12;;;;;;;10.68;7.38;;;8.10;99.90;;;;;;8252684;28;20033;-79
2022/10/04 19:38:19;;;;;;;11.60;7.03;;;8.00;99.90;;;;;;8247272;28;20037;-79
2022/10/04 19:42:36;;;;;;;13.07;6.40;;;7.80;99.90;;;;;;8267560;28;20026;-78
2022/10/04 19:46:57;;;;;;;12.25;6.75;;;7.70;99.90;;;;;;8258683;28;20501;-79
2022/10/04 19:51:08;;;;;;;;;;;8.00;99.90;;;;;;8262664;28;20137;-79
2022/10/04 19:55:11;;;;;;;7.45;5.50;;;7.90;99.90;;;;;;8249776;28;20353;-78
2022/10/04 19:59:27;;;;;;;7.53;5.15;;;7.90;99.90;;;;;;8243624;28;20031;-79
2022/10/04 20:03:27;;;;;;;9.55;5.53;;;7.70;99.90;;;;;;8252108;28;20766;-79
2022/10/04 20:07:29;;;;;;;8.25;5.53;;;7.60;99.90;;;;;;8258605;28;20034;-79
2022/10/04 20:11:38;;;;;;;7.93;5.18;;;7.50;99.90;;;;;;8257931;28;20704;-78
2022/10/04 20:15:39;;;;;;;11.77;5.93;;;7.30;99.90;;;;;;8255945;28;20491;-79
2022/10/04 20:19:40;;;;;;;12.05;6.43;;;7.10;99.90;;;;;;8254809;28;20027;-78
2022/10/04 20:23:46;;;;;;;11.52;7.50;;;7.10;99.90;;;;;;8252899;28;20034;-78
2022/10/04 20:27:47;;;;;;;14.15;8.40;;;7.00;99.90;;;;;;8254102;28;20073;-79
2022/10/04 20:31:52;;;;;;;13.23;8.45;;;7.00;99.90;;;;;;8257410;28;20113;-79
2022/10/04 20:35:59;;;;;;;14.45;9.00;;;6.90;99.90;;;;;;8256248;28;21205;-79
2022/10/04 20:40:00;;;;;;;12.32;8.38;;;6.90;99.90;;;;;;8253407;28;20661;-79
2022/10/04 20:44:02;;;;;;;16.08;9.00;;;7.00;99.90;;;;;;8262725;28;20027;-78
2022/10/04 20:48:15;;;;;;;15.40;9.45;;;7.10;99.90;;;;;;8263091;28;20140;-78
2022/10/04 20:52:16;;;;;;;10.45;7.43;;;7.20;99.90;;;;;;8260191;28;20499;-78
2022/10/04 20:56:25;;;;;;;12.65;7.32;;;7.20;99.90;;;;;;8262380;28;20026;-78
2022/10/04 21:00:30;;;;;;;13.13;6.68;;;7.00;99.90;;;;;;8262451;28;20073;-79
2022/10/04 21:04:32;;;;;;;9.88;6.22;;;6.80;99.90;;;;;;8261955;28;20025;-79
2022/10/04 21:08:33;;;;;;;11.60;6.45;;;6.70;99.90;;;;;;8262645;28;20022;-79
2022/10/04 21:12:34;;;;;;;10.55;6.53;;;6.70;99.90;;;;;;8263473;28;20074;-80
2022/10/04 21:16:45;;;;;;;11.68;6.82;;;6.70;99.90;;;;;;8263123;28;20052;-79
2022/10/04 21:20:47;;;;;;;10.80;6.88;;;6.70;99.90;;;;;;8263337;28;20390;-80
2022/10/04 21:24:48;;;;;;;12.63;7.47;;;6.60;99.90;;;;;;8263423;28;20026;-79
2022/10/04 21:28:53;;;;;;;17.27;7.72;;;6.50;99.90;;;;;;8262566;28;20486;-79
2022/10/04 21:32:53;;;;;;;13.25;7.53;;;6.30;99.90;;;;;;8263515;28;20022;-80
2022/10/04 21:36:54;;;;;;;10.70;6.97;;;6.20;99.90;;;;;;8262955;28;20048;-78
2022/10/04 21:40:55;;;;;;;14.32;7.78;;;6.30;99.90;;;;;;8262294;28;20019;-79
2022/10/04 21:44:55;;;;;;;14.20;7.20;;;6.40;99.90;;;;;;8263297;28;20029;-80
2022/10/04 21:48:56;;;;;;;16.50;8.25;;;6.40;99.90;;;;;;8262934;28;20031;-78
2022/10/04 21:52:58;;;;;;;13.32;7.07;;;6.50;99.90;;;;;;8263280;28;20030;-78
2022/10/04 21:56:59;;;;;;;10.77;6.63;;;6.40;99.90;;;;;;8261551;28;20037;-78
2022/10/04 22:00:59;;;;;;;10.43;7.15;;;6.30;99.90;;;;;;8261999;28;20022;-79
2022/10/04 22:05:00;;;;;;;11.50;6.78;;;6.20;99.90;;;;;;8261898;28;20364;-79
2022/10/04 22:09:00;;;;;;;12.68;7.07;;;6.10;99.90;;;;;;8260067;28;20019;-80
2022/10/04 22:13:01;;;;;;;11.75;7.78;;;6.10;99.90;;;;;;8262995;28;20032;-79
2022/10/04 22:17:01;;;;;;;14.85;7.03;;;6.00;99.90;;;;;;8261193;28;20054;-79
2022/10/04 22:21:02;;;;;;;14.35;6.88;;;5.90;99.90;;;;;;8262091;28;20019;-79
2022/10/04 22:25:12;;;;;;;11.15;6.55;;;5.80;99.90;;;;;;8260853;28;20364;-80
2022/10/04 22:29:15;;;;;;;12.32;6.95;;;5.70;99.90;;;;;;8262463;28;20023;-80
2022/10/04 22:33:33;;;;;;;13.00;7.00;;;5.70;99.90;;;;;;8261107;28;20569;-79
2022/10/04 22:37:34;;;;;;;13.90;6.65;;;5.60;99.90;;;;;;8255859;28;20025;-79
2022/10/04 22:41:38;;;;;;;9.43;6.22;;;5.60;99.90;;;;;;8260905;28;20062;-78
2022/10/04 22:45:41;;;;;;;14.25;7.55;;;5.60;99.90;;;;;;8260722;28;20542;-79